sensor_id;sensor_type;location;lat;lon;timestamp;P1;durP1;ratioP1;P2;durP2;ratioP2
14292;SDS011;62290;59.420;17.842;2023-05-02T00:02:27;0.20;;;0.20;;
14292;SDS011;62290;59.420;17.842;2023-05-02T00:04:56;0.57;;;0.30;;
14292;SDS011;62290;59.420;17.842;2023-05-02T00:07:24;1.05;;;0.22;;
14292;SDS011;62290;59.420;17.842;2023-05-02T00:09:53;2.00;;;0.30;;
14292;SDS011;62290;59.420;17.842;2023-05-02T00:12:21;0.28;;;0.28;;
14292;SDS011;62290;59.420;17.842;2023-05-02T00:14:49;0.20;;;0.20;;
14292;SDS011;62290;59.420;17.842;2023-05-02T00:17:17;0.25;;;0.22;;
14292;SDS011;62290;59.420;17.842;2023-05-02T00:19:46;0.25;;;0.25;;
14292;SDS011;62290;59.420;17.842;2023-05-02T00:22:16;1.10;;;0.20;;
14292;SDS011;62290;59.420;17.842;2023-05-02T00:24:44;0.38;;;0.30;;
14292;SDS011;62290;59.420;17.842;2023-05-02T00:27:12;0.28;;;0.22;;
14292;SDS011;62290;59.420;17.842;2023-05-02T00:29:40;0.30;;;0.30;;
14292;SDS011;62290;59.420;17.842;2023-05-02T00:32:08;0.20;;;0.20;;
14292;SDS011;62290;59.420;17.842;2023-05-02T00:34:37;0.32;;;0.20;;
14292;SDS011;62290;59.420;17.842;2023-05-02T00:37:05;0.20;;;0.20;;
14292;SDS011;62290;59.420;17.842;2023-05-02T00:39:34;0.20;;;0.20;;
14292;SDS011;62290;59.420;17.842;2023-05-02T00:42:03;0.22;;;0.22;;
14292;SDS011;62290;59.420;17.842;2023-05-02T00:44:31;0.10;;;0.10;;
14292;SDS011;62290;59.420;17.842;2023-05-02T00:46:59;0.95;;;0.10;;
14292;SDS011;62290;59.420;17.842;2023-05-02T00:49:28;0.45;;;0.22;;
14292;SDS011;62290;59.420;17.842;2023-05-02T00:51:57;0.65;;;0.47;;
14292;SDS011;62290;59.420;17.842;2023-05-02T00:54:25;0.20;;;0.20;;
14292;SDS011;62290;59.420;17.842;2023-05-02T00:56:54;1.73;;;0.20;;
14292;SDS011;62290;59.420;17.842;2023-05-02T00:59:22;0.17;;;0.17;;
14292;SDS011;62290;59.420;17.842;2023-05-02T01:01:56;0.17;;;0.10;;
14292;SDS011;62290;59.420;17.842;2023-05-02T01:04:36;0.22;;;0.22;;
14292;SDS011;62290;59.420;17.842;2023-05-02T01:07:17;0.50;;;0.25;;
14292;SDS011;62290;59.420;17.842;2023-05-02T01:09:56;0.10;;;0.10;;
14292;SDS011;62290;59.420;17.842;2023-05-02T01:12:36;0.25;;;0.25;;
14292;SDS011;62290;59.420;17.842;2023-05-02T01:15:09;0.15;;;0.15;;
14292;SDS011;62290;59.420;17.842;2023-05-02T01:17:41;0.90;;;0.20;;
14292;SDS011;62290;59.420;17.842;2023-05-02T01:20:13;0.28;;;0.28;;
14292;SDS011;62290;59.420;17.842;2023-05-02T01:22:48;0.15;;;0.15;;
14292;SDS011;62290;59.420;17.842;2023-05-02T01:25:21;0.20;;;0.10;;
14292;SDS011;62290;59.420;17.842;2023-05-02T01:28:04;0.20;;;0.20;;
14292;SDS011;62290;59.420;17.842;2023-05-02T01:30:43;0.10;;;0.10;;
14292;SDS011;62290;59.420;17.842;2023-05-02T01:33:13;0.30;;;0.20;;
14292;SDS011;62290;59.420;17.842;2023-05-02T01:35:43;0.40;;;0.10;;
14292;SDS011;62290;59.420;17.842;2023-05-02T01:38:16;0.20;;;0.20;;
14292;SDS011;62290;59.420;17.842;2023-05-02T01:40:47;0.10;;;0.10;;
14292;SDS011;62290;59.420;17.842;2023-05-02T01:43:18;0.13;;;0.13;;
14292;SDS011;62290;59.420;17.842;2023-05-02T01:45:49;0.20;;;0.20;;
14292;SDS011;62290;59.420;17.842;2023-05-02T01:48:19;0.30;;;0.25;;
14292;SDS011;62290;59.420;17.842;2023-05-02T01:50:49;0.22;;;0.20;;
14292;SDS011;62290;59.420;17.842;2023-05-02T01:53:18;0.30;;;0.30;;
14292;SDS011;62290;59.420;17.842;2023-05-02T01:55:47;0.20;;;0.20;;
14292;SDS011;62290;59.420;17.842;2023-05-02T01:58:17;0.30;;;0.20;;
14292;SDS011;62290;59.420;17.842;2023-05-02T02:00:50;0.15;;;0.15;;
14292;SDS011;62290;59.420;17.842;2023-05-02T02:03:19;1.15;;;0.17;;
14292;SDS011;62290;59.420;17.842;2023-05-02T02:05:52;0.47;;;0.17;;
14292;SDS011;62290;59.420;17.842;2023-05-02T02:08:22;0.52;;;0.10;;
14292;SDS011;62290;59.420;17.842;2023-05-02T02:10:52;0.10;;;0.10;;
14292;SDS011;62290;59.420;17.842;2023-05-02T02:13:25;0.15;;;0.15;;
14292;SDS011;62290;59.420;17.842;2023-05-02T02:15:58;0.20;;;0.20;;
14292;SDS011;62290;59.420;17.842;2023-05-02T02:18:28;0.10;;;0.10;;
14292;SDS011;62290;59.420;17.842;2023-05-02T02:21:02;0.30;;;0.30;;
14292;SDS011;62290;59.420;17.842;2023-05-02T02:23:33;0.30;;;0.30;;
14292;SDS011;62290;59.420;17.842;2023-05-02T02:26:03;0.20;;;0.20;;
14292;SDS011;62290;59.420;17.842;2023-05-02T02:28:33;2.63;;;0.30;;
14292;SDS011;62290;59.420;17.842;2023-05-02T02:31:02;0.30;;;0.20;;
14292;SDS011;62290;59.420;17.842;2023-05-02T02:33:31;0.20;;;0.20;;
14292;SDS011;62290;59.420;17.842;2023-05-02T02:36:01;0.20;;;0.20;;
14292;SDS011;62290;59.420;17.842;2023-05-02T02:38:38;0.85;;;0.20;;
14292;SDS011;62290;59.420;17.842;2023-05-02T02:41:13;1.70;;;0.20;;
14292;SDS011;62290;59.420;17.842;2023-05-02T02:43:52;0.20;;;0.20;;
14292;SDS011;62290;59.420;17.842;2023-05-02T02:46:32;0.85;;;0.38;;
14292;SDS011;62290;59.420;17.842;2023-05-02T02:49:12;0.20;;;0.20;;
14292;SDS011;62290;59.420;17.842;2023-05-02T02:51:49;0.30;;;0.20;;
14292;SDS011;62290;59.420;17.842;2023-05-02T02:54:23;0.17;;;0.17;;
14292;SDS011;62290;59.420;17.842;2023-05-02T02:56:59;0.20;;;0.20;;
14292;SDS011;62290;59.420;17.842;2023-05-02T02:59:31;0.25;;;0.22;;
14292;SDS011;62290;59.420;17.842;2023-05-02T03:02:04;0.25;;;0.25;;
14292;SDS011;62290;59.420;17.842;2023-05-02T03:04:35;0.20;;;0.20;;
14292;SDS011;62290;59.420;17.842;2023-05-02T03:07:05;0.35;;;0.20;;
14292;SDS011;62290;59.420;17.842;2023-05-02T03:09:40;0.43;;;0.20;;
14292;SDS011;62290;59.420;17.842;2023-05-02T03:12:11;0.32;;;0.17;;
14292;SDS011;62290;59.420;17.842;2023-05-02T03:14:40;0.55;;;0.20;;
14292;SDS011;62290;59.420;17.842;2023-05-02T03:17:11;0.20;;;0.20;;
14292;SDS011;62290;59.420;17.842;2023-05-02T03:19:40;0.50;;;0.15;;
14292;SDS011;62290;59.420;17.842;2023-05-02T03:22:08;0.10;;;0.10;;
14292;SDS011;62290;59.420;17.842;2023-05-02T03:24:36;0.22;;;0.22;;
14292;SDS011;62290;59.420;17.842;2023-05-02T03:27:04;0.20;;;0.20;;
14292;SDS011;62290;59.420;17.842;2023-05-02T03:29:38;0.10;;;0.10;;
14292;SDS011;62290;59.420;17.842;2023-05-02T03:32:08;0.52;;;0.30;;
14292;SDS011;62290;59.420;17.842;2023-05-02T03:34:39;0.10;;;0.10;;
14292;SDS011;62290;59.420;17.842;2023-05-02T03:37:09;0.65;;;0.20;;
14292;SDS011;62290;59.420;17.842;2023-05-02T03:39:37;0.25;;;0.25;;
14292;SDS011;62290;59.420;17.842;2023-05-02T03:42:05;0.20;;;0.20;;
14292;SDS011;62290;59.420;17.842;2023-05-02T03:44:34;0.20;;;0.20;;
14292;SDS011;62290;59.420;17.842;2023-05-02T03:47:02;0.20;;;0.20;;
14292;SDS011;62290;59.420;17.842;2023-05-02T03:49:35;0.22;;;0.22;;
14292;SDS011;62290;59.420;17.842;2023-05-02T03:52:06;0.30;;;0.30;;
14292;SDS011;62290;59.420;17.842;2023-05-02T03:54:35;0.25;;;0.25;;
14292;SDS011;62290;59.420;17.842;2023-05-02T03:57:03;0.95;;;0.40;;
14292;SDS011;62290;59.420;17.842;2023-05-02T03:59:32;0.30;;;0.20;;
14292;SDS011;62290;59.420;17.842;2023-05-02T04:02:07;0.25;;;0.25;;
14292;SDS011;62290;59.420;17.842;2023-05-02T04:04:44;0.30;;;0.30;;
14292;SDS011;62290;59.420;17.842;2023-05-02T04:07:17;0.90;;;0.30;;
14292;SDS011;62290;59.420;17.842;2023-05-02T04:09:52;0.77;;;0.40;;
14292;SDS011;62290;59.420;17.842;2023-05-02T04:12:20;0.30;;;0.20;;
14292;SDS011;62290;59.420;17.842;2023-05-02T04:14:50;0.85;;;0.40;;
14292;SDS011;62290;59.420;17.842;2023-05-02T04:17:22;0.20;;;0.20;;
14292;SDS011;62290;59.420;17.842;2023-05-02T04:19:51;0.50;;;0.50;;
14292;SDS011;62290;59.420;17.842;2023-05-02T04:22:24;0.40;;;0.40;;
14292;SDS011;62290;59.420;17.842;2023-05-02T04:25:00;0.70;;;0.40;;
14292;SDS011;62290;59.420;17.842;2023-05-02T04:27:29;0.30;;;0.30;;
14292;SDS011;62290;59.420;17.842;2023-05-02T04:29:58;1.40;;;0.40;;
14292;SDS011;62290;59.420;17.842;2023-05-02T04:32:26;0.30;;;0.30;;
14292;SDS011;62290;59.420;17.842;2023-05-02T04:34:56;0.60;;;0.50;;
14292;SDS011;62290;59.420;17.842;2023-05-02T04:37:26;0.77;;;0.57;;
14292;SDS011;62290;59.420;17.842;2023-05-02T04:39:54;1.05;;;0.60;;
14292;SDS011;62290;59.420;17.842;2023-05-02T04:42:25;0.28;;;0.28;;
14292;SDS011;62290;59.420;17.842;2023-05-02T04:45:04;1.30;;;0.57;;
14292;SDS011;62290;59.420;17.842;2023-05-02T04:47:33;0.38;;;0.38;;
14292;SDS011;62290;59.420;17.842;2023-05-02T04:50:02;0.30;;;0.30;;
14292;SDS011;62290;59.420;17.842;2023-05-02T04:52:31;0.32;;;0.30;;
14292;SDS011;62290;59.420;17.842;2023-05-02T04:55:00;0.50;;;0.50;;
14292;SDS011;62290;59.420;17.842;2023-05-02T04:57:28;0.35;;;0.35;;
14292;SDS011;62290;59.420;17.842;2023-05-02T04:59:58;0.32;;;0.28;;
14292;SDS011;62290;59.420;17.842;2023-05-02T05:02:27;0.30;;;0.30;;
14292;SDS011;62290;59.420;17.842;2023-05-02T05:04:56;0.43;;;0.43;;
14292;SDS011;62290;59.420;17.842;2023-05-02T05:07:24;0.30;;;0.30;;
14292;SDS011;62290;59.420;17.842;2023-05-02T05:09:55;0.30;;;0.30;;
14292;SDS011;62290;59.420;17.842;2023-05-02T05:12:26;0.82;;;0.50;;
14292;SDS011;62290;59.420;17.842;2023-05-02T05:14:54;1.60;;;0.50;;
14292;SDS011;62290;59.420;17.842;2023-05-02T05:17:24;1.25;;;0.40;;
14292;SDS011;62290;59.420;17.842;2023-05-02T05:19:52;0.93;;;0.60;;
14292;SDS011;62290;59.420;17.842;2023-05-02T05:22:21;0.40;;;0.40;;
14292;SDS011;62290;59.420;17.842;2023-05-02T05:24:50;4.38;;;0.60;;
14292;SDS011;62290;59.420;17.842;2023-05-02T05:27:21;5.88;;;0.60;;
14292;SDS011;62290;59.420;17.842;2023-05-02T05:29:49;4.15;;;0.70;;
14292;SDS011;62290;59.420;17.842;2023-05-02T05:32:18;1.08;;;0.50;;
14292;SDS011;62290;59.420;17.842;2023-05-02T05:34:50;1.58;;;0.52;;
14292;SDS011;62290;59.420;17.842;2023-05-02T05:37:20;5.18;;;0.63;;
14292;SDS011;62290;59.420;17.842;2023-05-02T05:39:48;0.55;;;0.45;;
14292;SDS011;62290;59.420;17.842;2023-05-02T05:42:16;0.60;;;0.40;;
14292;SDS011;62290;59.420;17.842;2023-05-02T05:44:49;1.52;;;0.52;;
14292;SDS011;62290;59.420;17.842;2023-05-02T05:47:20;1.00;;;0.52;;
14292;SDS011;62290;59.420;17.842;2023-05-02T05:49:51;2.00;;;0.55;;
14292;SDS011;62290;59.420;17.842;2023-05-02T05:52:21;0.40;;;0.40;;
14292;SDS011;62290;59.420;17.842;2023-05-02T05:54:52;2.08;;;0.50;;
14292;SDS011;62290;59.420;17.842;2023-05-02T05:57:23;0.55;;;0.30;;
14292;SDS011;62290;59.420;17.842;2023-05-02T05:59:53;3.90;;;0.40;;
14292;SDS011;62290;59.420;17.842;2023-05-02T06:02:22;2.25;;;0.40;;
14292;SDS011;62290;59.420;17.842;2023-05-02T06:04:50;2.58;;;0.47;;
14292;SDS011;62290;59.420;17.842;2023-05-02T06:07:21;0.60;;;0.40;;
14292;SDS011;62290;59.420;17.842;2023-05-02T06:09:49;0.43;;;0.40;;
14292;SDS011;62290;59.420;17.842;2023-05-02T06:12:17;0.80;;;0.30;;
14292;SDS011;62290;59.420;17.842;2023-05-02T06:14:45;2.55;;;0.50;;
14292;SDS011;62290;59.420;17.842;2023-05-02T06:17:15;3.25;;;0.35;;
14292;SDS011;62290;59.420;17.842;2023-05-02T06:19:43;0.73;;;0.30;;
14292;SDS011;62290;59.420;17.842;2023-05-02T06:22:11;0.75;;;0.57;;
14292;SDS011;62290;59.420;17.842;2023-05-02T06:24:39;1.05;;;0.40;;
14292;SDS011;62290;59.420;17.842;2023-05-02T06:27:07;0.85;;;0.50;;
14292;SDS011;62290;59.420;17.842;2023-05-02T06:29:35;1.58;;;0.60;;
14292;SDS011;62290;59.420;17.842;2023-05-02T06:32:03;5.55;;;1.02;;
14292;SDS011;62290;59.420;17.842;2023-05-02T06:34:33;10.95;;;1.10;;
14292;SDS011;62290;59.420;17.842;2023-05-02T06:37:01;8.55;;;1.58;;
14292;SDS011;62290;59.420;17.842;2023-05-02T06:39:29;5.18;;;1.55;;
14292;SDS011;62290;59.420;17.842;2023-05-02T06:41:57;15.90;;;3.03;;
14292;SDS011;62290;59.420;17.842;2023-05-02T06:44:26;13.73;;;1.98;;
14292;SDS011;62290;59.420;17.842;2023-05-02T06:46:55;12.07;;;2.17;;
14292;SDS011;62290;59.420;17.842;2023-05-02T06:49:23;9.70;;;2.17;;
14292;SDS011;62290;59.420;17.842;2023-05-02T06:51:52;18.13;;;2.42;;
14292;SDS011;62290;59.420;17.842;2023-05-02T06:54:20;11.63;;;2.35;;
14292;SDS011;62290;59.420;17.842;2023-05-02T06:56:48;17.77;;;2.15;;
14292;SDS011;62290;59.420;17.842;2023-05-02T06:59:16;7.85;;;1.58;;
14292;SDS011;62290;59.420;17.842;2023-05-02T07:01:44;14.15;;;2.15;;
14292;SDS011;62290;59.420;17.842;2023-05-02T07:04:13;12.77;;;2.00;;
14292;SDS011;62290;59.420;17.842;2023-05-02T07:06:41;9.32;;;1.70;;
14292;SDS011;62290;59.420;17.842;2023-05-02T07:09:10;16.60;;;1.70;;
14292;SDS011;62290;59.420;17.842;2023-05-02T07:11:38;4.40;;;1.30;;
14292;SDS011;62290;59.420;17.842;2023-05-02T07:14:06;4.57;;;1.25;;
14292;SDS011;62290;59.420;17.842;2023-05-02T07:16:34;10.77;;;1.58;;
14292;SDS011;62290;59.420;17.842;2023-05-02T07:19:02;1.83;;;1.00;;
14292;SDS011;62290;59.420;17.842;2023-05-02T07:21:32;4.25;;;1.17;;
14292;SDS011;62290;59.420;17.842;2023-05-02T07:24:00;6.68;;;1.20;;
14292;SDS011;62290;59.420;17.842;2023-05-02T07:26:30;6.13;;;1.85;;
14292;SDS011;62290;59.420;17.842;2023-05-02T07:28:58;10.50;;;1.35;;
14292;SDS011;62290;59.420;17.842;2023-05-02T07:31:26;4.22;;;1.10;;
14292;SDS011;62290;59.420;17.842;2023-05-02T07:33:54;5.63;;;1.60;;
14292;SDS011;62290;59.420;17.842;2023-05-02T07:36:22;6.03;;;1.10;;
14292;SDS011;62290;59.420;17.842;2023-05-02T07:38:50;5.65;;;1.67;;
14292;SDS011;62290;59.420;17.842;2023-05-02T07:41:18;3.10;;;1.05;;
14292;SDS011;62290;59.420;17.842;2023-05-02T07:43:47;3.42;;;1.20;;
14292;SDS011;62290;59.420;17.842;2023-05-02T07:46:15;3.67;;;1.10;;
14292;SDS011;62290;59.420;17.842;2023-05-02T07:48:44;2.47;;;0.85;;
14292;SDS011;62290;59.420;17.842;2023-05-02T07:51:12;1.85;;;0.88;;
14292;SDS011;62290;59.420;17.842;2023-05-02T07:53:40;2.33;;;1.13;;
14292;SDS011;62290;59.420;17.842;2023-05-02T07:56:07;1.88;;;0.80;;
14292;SDS011;62290;59.420;17.842;2023-05-02T07:58:36;1.15;;;0.80;;
14292;SDS011;62290;59.420;17.842;2023-05-02T08:01:05;1.98;;;0.75;;
14292;SDS011;62290;59.420;17.842;2023-05-02T08:03:33;1.95;;;0.77;;
14292;SDS011;62290;59.420;17.842;2023-05-02T08:06:02;1.95;;;0.68;;
14292;SDS011;62290;59.420;17.842;2023-05-02T08:08:30;2.53;;;0.82;;
14292;SDS011;62290;59.420;17.842;2023-05-02T08:10:58;1.88;;;0.90;;
14292;SDS011;62290;59.420;17.842;2023-05-02T08:13:26;7.00;;;1.05;;
14292;SDS011;62290;59.420;17.842;2023-05-02T08:15:54;1.90;;;0.70;;
14292;SDS011;62290;59.420;17.842;2023-05-02T08:18:25;5.57;;;1.00;;
14292;SDS011;62290;59.420;17.842;2023-05-02T08:20:54;5.22;;;0.90;;
14292;SDS011;62290;59.420;17.842;2023-05-02T08:23:23;7.80;;;1.50;;
14292;SDS011;62290;59.420;17.842;2023-05-02T08:25:52;5.75;;;1.00;;
14292;SDS011;62290;59.420;17.842;2023-05-02T08:28:20;6.55;;;0.85;;
14292;SDS011;62290;59.420;17.842;2023-05-02T08:30:49;2.28;;;0.90;;
14292;SDS011;62290;59.420;17.842;2023-05-02T08:33:17;6.15;;;0.98;;
14292;SDS011;62290;59.420;17.842;2023-05-02T08:35:47;3.58;;;1.27;;
14292;SDS011;62290;59.420;17.842;2023-05-02T08:38:15;4.38;;;1.10;;
14292;SDS011;62290;59.420;17.842;2023-05-02T08:40:43;2.20;;;0.60;;
14292;SDS011;62290;59.420;17.842;2023-05-02T08:43:15;2.70;;;0.60;;
14292;SDS011;62290;59.420;17.842;2023-05-02T08:45:43;4.05;;;0.75;;
14292;SDS011;62290;59.420;17.842;2023-05-02T08:48:12;4.32;;;1.00;;
14292;SDS011;62290;59.420;17.842;2023-05-02T08:50:42;4.85;;;0.90;;
14292;SDS011;62290;59.420;17.842;2023-05-02T08:53:15;2.85;;;0.80;;
14292;SDS011;62290;59.420;17.842;2023-05-02T08:55:44;4.43;;;0.73;;
14292;SDS011;62290;59.420;17.842;2023-05-02T08:58:13;8.52;;;1.00;;
14292;SDS011;62290;59.420;17.842;2023-05-02T09:00:43;3.65;;;0.88;;
14292;SDS011;62290;59.420;17.842;2023-05-02T09:03:16;4.72;;;0.73;;
14292;SDS011;62290;59.420;17.842;2023-05-02T09:05:51;2.35;;;0.80;;
14292;SDS011;62290;59.420;17.842;2023-05-02T09:08:22;4.65;;;1.15;;
14292;SDS011;62290;59.420;17.842;2023-05-02T09:10:51;7.95;;;1.02;;
14292;SDS011;62290;59.420;17.842;2023-05-02T09:13:29;4.18;;;1.10;;
14292;SDS011;62290;59.420;17.842;2023-05-02T09:15:58;2.75;;;0.98;;
14292;SDS011;62290;59.420;17.842;2023-05-02T09:18:28;5.07;;;0.75;;
14292;SDS011;62290;59.420;17.842;2023-05-02T09:20:57;2.33;;;0.73;;
14292;SDS011;62290;59.420;17.842;2023-05-02T09:23:34;4.13;;;0.80;;
14292;SDS011;62290;59.420;17.842;2023-05-02T09:26:14;3.08;;;0.75;;
14292;SDS011;62290;59.420;17.842;2023-05-02T09:28:44;2.97;;;0.90;;
14292;SDS011;62290;59.420;17.842;2023-05-02T09:31:13;4.82;;;0.85;;
14292;SDS011;62290;59.420;17.842;2023-05-02T09:33:57;4.00;;;0.68;;
14292;SDS011;62290;59.420;17.842;2023-05-02T09:36:38;1.38;;;1.00;;
14292;SDS011;62290;59.420;17.842;2023-05-02T09:39:09;1.38;;;0.80;;
14292;SDS011;62290;59.420;17.842;2023-05-02T09:41:39;1.65;;;0.60;;
14292;SDS011;62290;59.420;17.842;2023-05-02T09:44:08;1.75;;;0.70;;
14292;SDS011;62290;59.420;17.842;2023-05-02T09:46:40;1.33;;;0.57;;
14292;SDS011;62290;59.420;17.842;2023-05-02T09:49:09;1.00;;;0.50;;
14292;SDS011;62290;59.420;17.842;2023-05-02T09:51:37;1.05;;;0.68;;
14292;SDS011;62290;59.420;17.842;2023-05-02T09:54:05;3.60;;;0.60;;
14292;SDS011;62290;59.420;17.842;2023-05-02T09:56:38;5.07;;;0.65;;
14292;SDS011;62290;59.420;17.842;2023-05-02T09:59:18;0.73;;;0.63;;
14292;SDS011;62290;59.420;17.842;2023-05-02T10:01:52;1.80;;;0.60;;
14292;SDS011;62290;59.420;17.842;2023-05-02T10:04:22;1.15;;;0.47;;
14292;SDS011;62290;59.420;17.842;2023-05-02T10:06:51;0.98;;;0.57;;
14292;SDS011;62290;59.420;17.842;2023-05-02T10:09:20;1.30;;;0.50;;
14292;SDS011;62290;59.420;17.842;2023-05-02T10:11:51;1.65;;;0.50;;
14292;SDS011;62290;59.420;17.842;2023-05-02T10:14:21;1.85;;;0.45;;
14292;SDS011;62290;59.420;17.842;2023-05-02T10:16:57;0.95;;;0.47;;
14292;SDS011;62290;59.420;17.842;2023-05-02T10:19:28;1.58;;;0.50;;
14292;SDS011;62290;59.420;17.842;2023-05-02T10:22:00;1.52;;;0.60;;
14292;SDS011;62290;59.420;17.842;2023-05-02T10:24:30;4.80;;;0.85;;
14292;SDS011;62290;59.420;17.842;2023-05-02T10:27:01;3.00;;;0.60;;
14292;SDS011;62290;59.420;17.842;2023-05-02T10:29:31;1.98;;;0.70;;
14292;SDS011;62290;59.420;17.842;2023-05-02T10:32:00;2.83;;;0.68;;
14292;SDS011;62290;59.420;17.842;2023-05-02T10:34:31;2.38;;;0.80;;
14292;SDS011;62290;59.420;17.842;2023-05-02T10:36:59;2.53;;;0.63;;
14292;SDS011;62290;59.420;17.842;2023-05-02T10:39:28;1.80;;;0.65;;
14292;SDS011;62290;59.420;17.842;2023-05-02T10:41:56;0.65;;;0.50;;
14292;SDS011;62290;59.420;17.842;2023-05-02T10:44:33;2.85;;;0.93;;
14292;SDS011;62290;59.420;17.842;2023-05-02T10:47:16;9.32;;;1.00;;
14292;SDS011;62290;59.420;17.842;2023-05-02T10:49:50;2.22;;;0.88;;
14292;SDS011;62290;59.420;17.842;2023-05-02T10:52:26;1.98;;;0.60;;
14292;SDS011;62290;59.420;17.842;2023-05-02T10:55:12;1.42;;;0.73;;
14292;SDS011;62290;59.420;17.842;2023-05-02T11:00:49;6.05;;;0.98;;
14292;SDS011;62290;59.420;17.842;2023-05-02T11:06:24;0.90;;;0.68;;
14292;SDS011;62290;59.420;17.842;2023-05-02T11:08:59;1.77;;;0.85;;
14292;SDS011;62290;59.420;17.842;2023-05-02T11:12:02;0.93;;;0.75;;
14292;SDS011;62290;59.420;17.842;2023-05-02T11:17:18;2.10;;;0.93;;
14292;SDS011;62290;59.420;17.842;2023-05-02T11:22:45;5.53;;;0.70;;
14292;SDS011;62290;59.420;17.842;2023-05-02T11:25:27;2.30;;;0.75;;
14292;SDS011;62290;59.420;17.842;2023-05-02T11:27:59;2.67;;;0.90;;
14292;SDS011;62290;59.420;17.842;2023-05-02T11:30:38;4.20;;;0.95;;
14292;SDS011;62290;59.420;17.842;2023-05-02T11:33:16;3.22;;;0.93;;
14292;SDS011;62290;59.420;17.842;2023-05-02T11:35:46;1.10;;;0.98;;
14292;SDS011;62290;59.420;17.842;2023-05-02T11:38:15;2.25;;;0.82;;
14292;SDS011;62290;59.420;17.842;2023-05-02T11:40:56;2.25;;;0.80;;
14292;SDS011;62290;59.420;17.842;2023-05-02T11:43:26;2.53;;;0.80;;
14292;SDS011;62290;59.420;17.842;2023-05-02T11:45:57;2.85;;;0.70;;
14292;SDS011;62290;59.420;17.842;2023-05-02T11:48:29;1.13;;;0.60;;
14292;SDS011;62290;59.420;17.842;2023-05-02T11:50:58;2.30;;;0.60;;
14292;SDS011;62290;59.420;17.842;2023-05-02T11:53:31;5.95;;;0.90;;
14292;SDS011;62290;59.420;17.842;2023-05-02T11:56:00;2.90;;;0.68;;
14292;SDS011;62290;59.420;17.842;2023-05-02T11:58:30;1.15;;;0.60;;
14292;SDS011;62290;59.420;17.842;2023-05-02T12:01:09;2.53;;;0.60;;
14292;SDS011;62290;59.420;17.842;2023-05-02T12:03:40;2.20;;;0.60;;
14292;SDS011;62290;59.420;17.842;2023-05-02T12:06:09;2.25;;;0.70;;
14292;SDS011;62290;59.420;17.842;2023-05-02T12:08:39;7.20;;;0.98;;
14292;SDS011;62290;59.420;17.842;2023-05-02T12:11:11;1.95;;;0.60;;
14292;SDS011;62290;59.420;17.842;2023-05-02T12:13:43;1.55;;;0.65;;
14292;SDS011;62290;59.420;17.842;2023-05-02T12:16:12;3.00;;;0.77;;
14292;SDS011;62290;59.420;17.842;2023-05-02T12:18:42;11.95;;;0.70;;
14292;SDS011;62290;59.420;17.842;2023-05-02T12:21:11;7.07;;;0.75;;
14292;SDS011;62290;59.420;17.842;2023-05-02T12:23:39;0.57;;;0.50;;
14292;SDS011;62290;59.420;17.842;2023-05-02T12:26:18;2.15;;;0.70;;
14292;SDS011;62290;59.420;17.842;2023-05-02T12:28:48;3.03;;;0.77;;
14292;SDS011;62290;59.420;17.842;2023-05-02T12:31:17;1.17;;;0.60;;
14292;SDS011;62290;59.420;17.842;2023-05-02T12:33:46;1.77;;;0.60;;
14292;SDS011;62290;59.420;17.842;2023-05-02T12:36:17;4.90;;;0.80;;
14292;SDS011;62290;59.420;17.842;2023-05-02T12:38:48;2.65;;;0.93;;
14292;SDS011;62290;59.420;17.842;2023-05-02T12:41:27;5.32;;;0.70;;
14292;SDS011;62290;59.420;17.842;2023-05-02T12:43:57;2.88;;;0.80;;
14292;SDS011;62290;59.420;17.842;2023-05-02T12:46:26;2.45;;;0.80;;
14292;SDS011;62290;59.420;17.842;2023-05-02T12:49:02;4.22;;;1.10;;
14292;SDS011;62290;59.420;17.842;2023-05-02T12:51:32;2.22;;;0.90;;
14292;SDS011;62290;59.420;17.842;2023-05-02T12:54:00;2.35;;;0.90;;
14292;SDS011;62290;59.420;17.842;2023-05-02T12:56:28;4.35;;;1.20;;
14292;SDS011;62290;59.420;17.842;2023-05-02T12:58:58;6.75;;;1.35;;
14292;SDS011;62290;59.420;17.842;2023-05-02T13:01:31;6.63;;;1.35;;
14292;SDS011;62290;59.420;17.842;2023-05-02T13:04:00;4.85;;;1.33;;
14292;SDS011;62290;59.420;17.842;2023-05-02T13:06:29;7.88;;;1.10;;
14292;SDS011;62290;59.420;17.842;2023-05-02T13:08:58;5.45;;;1.00;;
14292;SDS011;62290;59.420;17.842;2023-05-02T13:11:26;3.38;;;0.75;;
14292;SDS011;62290;59.420;17.842;2023-05-02T13:13:54;4.95;;;0.90;;
14292;SDS011;62290;59.420;17.842;2023-05-02T13:16:22;3.80;;;0.80;;
14292;SDS011;62290;59.420;17.842;2023-05-02T13:18:51;2.15;;;0.80;;
14292;SDS011;62290;59.420;17.842;2023-05-02T13:21:19;3.17;;;0.98;;
14292;SDS011;62290;59.420;17.842;2023-05-02T13:23:49;3.72;;;0.77;;
14292;SDS011;62290;59.420;17.842;2023-05-02T13:26:17;6.70;;;0.80;;
14292;SDS011;62290;59.420;17.842;2023-05-02T13:28:45;3.65;;;0.90;;
14292;SDS011;62290;59.420;17.842;2023-05-02T13:31:13;5.35;;;1.30;;
14292;SDS011;62290;59.420;17.842;2023-05-02T13:33:41;2.25;;;0.60;;
14292;SDS011;62290;59.420;17.842;2023-05-02T13:36:09;2.50;;;0.50;;
14292;SDS011;62290;59.420;17.842;2023-05-02T13:38:37;2.90;;;0.63;;
14292;SDS011;62290;59.420;17.842;2023-05-02T13:41:07;3.40;;;0.93;;
14292;SDS011;62290;59.420;17.842;2023-05-02T13:43:35;5.28;;;0.85;;
14292;SDS011;62290;59.420;17.842;2023-05-02T13:46:04;1.85;;;0.60;;
14292;SDS011;62290;59.420;17.842;2023-05-02T13:48:32;1.65;;;0.70;;
14292;SDS011;62290;59.420;17.842;2023-05-02T13:51:02;1.65;;;0.80;;
14292;SDS011;62290;59.420;17.842;2023-05-02T13:53:30;0.80;;;0.50;;
14292;SDS011;62290;59.420;17.842;2023-05-02T13:55:58;0.55;;;0.50;;
14292;SDS011;62290;59.420;17.842;2023-05-02T13:58:28;0.98;;;0.52;;
14292;SDS011;62290;59.420;17.842;2023-05-02T14:00:56;1.55;;;0.70;;
14292;SDS011;62290;59.420;17.842;2023-05-02T14:03:24;6.80;;;0.90;;
14292;SDS011;62290;59.420;17.842;2023-05-02T14:05:52;0.77;;;0.60;;
14292;SDS011;62290;59.420;17.842;2023-05-02T14:08:20;1.80;;;0.52;;
14292;SDS011;62290;59.420;17.842;2023-05-02T14:10:48;2.05;;;0.77;;
14292;SDS011;62290;59.420;17.842;2023-05-02T14:13:16;1.40;;;0.45;;
14292;SDS011;62290;59.420;17.842;2023-05-02T14:15:45;1.08;;;0.47;;
14292;SDS011;62290;59.420;17.842;2023-05-02T14:18:13;2.42;;;0.50;;
14292;SDS011;62290;59.420;17.842;2023-05-02T14:20:42;2.42;;;0.55;;
14292;SDS011;62290;59.420;17.842;2023-05-02T14:23:10;1.42;;;0.55;;
14292;SDS011;62290;59.420;17.842;2023-05-02T14:25:38;2.60;;;0.50;;
14292;SDS011;62290;59.420;17.842;2023-05-02T14:28:06;1.50;;;0.45;;
14292;SDS011;62290;59.420;17.842;2023-05-02T14:30:34;1.15;;;0.50;;
14292;SDS011;62290;59.420;17.842;2023-05-02T14:33:03;1.67;;;0.60;;
14292;SDS011;62290;59.420;17.842;2023-05-02T14:35:32;0.45;;;0.30;;
14292;SDS011;62290;59.420;17.842;2023-05-02T14:38:00;0.45;;;0.32;;
14292;SDS011;62290;59.420;17.842;2023-05-02T14:40:29;1.85;;;0.35;;
14292;SDS011;62290;59.420;17.842;2023-05-02T14:42:57;1.83;;;0.60;;
14292;SDS011;62290;59.420;17.842;2023-05-02T14:45:25;3.15;;;0.40;;
14292;SDS011;62290;59.420;17.842;2023-05-02T14:47:53;3.40;;;0.50;;
14292;SDS011;62290;59.420;17.842;2023-05-02T14:50:24;3.50;;;0.50;;
14292;SDS011;62290;59.420;17.842;2023-05-02T14:52:52;0.70;;;0.43;;
14292;SDS011;62290;59.420;17.842;2023-05-02T14:55:20;2.90;;;0.50;;
14292;SDS011;62290;59.420;17.842;2023-05-02T14:57:48;0.45;;;0.35;;
14292;SDS011;62290;59.420;17.842;2023-05-02T15:00:16;2.35;;;0.68;;
14292;SDS011;62290;59.420;17.842;2023-05-02T15:02:44;1.75;;;0.40;;
14292;SDS011;62290;59.420;17.842;2023-05-02T15:05:13;3.78;;;0.70;;